createdAt,value
2023-05-01T00:02:15.634Z,68.88
2023-05-01T00:04:42.744Z,69.29
2023-05-01T00:07:09.935Z,68.60
2023-05-01T00:09:38.287Z,68.78
2023-05-01T00:12:05.332Z,69.49
2023-05-01T00:14:32.276Z,69.14
2023-05-01T00:16:59.297Z,69.77
2023-05-01T00:19:26.347Z,69.81
2023-05-01T00:21:53.524Z,70.30
2023-05-01T00:24:20.574Z,70.50
2023-05-01T00:26:48.908Z,70.36
2023-05-01T00:29:17.039Z,69.92
2023-05-01T00:31:44.138Z,70.01
2023-05-01T00:34:11.804Z,69.82
2023-05-01T00:36:38.862Z,70.65
2023-05-01T00:39:07.913Z,71.10
2023-05-01T00:41:35.142Z,71.20
2023-05-01T00:44:03.521Z,70.92
2023-05-01T00:46:30.950Z,71.34
2023-05-01T00:48:58.260Z,71.65
2023-05-01T00:51:27.393Z,72.21
2023-05-01T00:53:54.545Z,72.23
2023-05-01T00:56:21.596Z,72.14
2023-05-01T00:58:53.872Z,72.79
2023-05-01T01:01:22.958Z,72.98
2023-05-01T01:03:54.743Z,74.11
2023-05-01T01:06:25.554Z,74.24
2023-05-01T01:09:00.960Z,74.90
2023-05-01T01:11:34.775Z,74.45
2023-05-01T01:14:09.225Z,74.64
2023-05-01T01:16:42.436Z,75.22
2023-05-01T01:19:26.208Z,75.54
2023-05-01T01:21:56.707Z,75.33
2023-05-01T01:24:36.450Z,75.62
2023-05-01T01:27:30.301Z,74.50
2023-05-01T01:30:12.269Z,74.62
2023-05-01T01:33:01.366Z,74.74
2023-05-01T01:35:31.641Z,74.67
2023-05-01T01:38:03.543Z,75.06
2023-05-01T01:40:35.567Z,75.08
2023-05-01T01:43:04.019Z,75.72
2023-05-01T01:45:36.611Z,75.77
2023-05-01T01:48:04.879Z,76.20
2023-05-01T01:50:34.127Z,76.05
2023-05-01T01:53:02.027Z,75.96
2023-05-01T01:55:31.001Z,75.72
2023-05-01T01:57:59.125Z,75.87
2023-05-01T02:00:26.440Z,76.52
2023-05-01T02:02:54.066Z,76.74
2023-05-01T02:05:22.081Z,76.86
2023-05-01T02:07:51.582Z,76.70
2023-05-01T02:10:19.193Z,76.16
2023-05-01T02:12:47.142Z,75.97
2023-05-01T02:15:15.817Z,76.27
2023-05-01T02:17:42.587Z,76.48
2023-05-01T02:20:11.145Z,75.93
2023-05-01T02:22:38.066Z,76.88
2023-05-01T02:25:07.672Z,76.58
2023-05-01T02:27:36.527Z,77.53
2023-05-01T02:30:05.603Z,77.74
2023-05-01T02:32:32.953Z,77.51
2023-05-01T02:35:00.519Z,77.54
2023-05-01T02:37:29.417Z,77.25
2023-05-01T02:39:56.843Z,77.20
2023-05-01T02:42:26.864Z,77.87
2023-05-01T02:44:58.008Z,76.76
2023-05-01T02:47:27.837Z,76.78
2023-05-01T02:49:55.526Z,76.45
2023-05-01T02:52:25.789Z,77.01
2023-05-01T02:55:04.060Z,76.88
2023-05-01T02:57:32.851Z,77.72
2023-05-01T02:59:59.939Z,77.71
2023-05-01T03:02:26.959Z,77.24
2023-05-01T03:04:53.933Z,76.87
2023-05-01T03:07:21.734Z,75.85
2023-05-01T03:09:48.729Z,76.96
2023-05-01T03:12:15.634Z,76.51
2023-05-01T03:14:44.016Z,76.88
2023-05-01T03:17:10.960Z,78.30
2023-05-01T03:19:37.953Z,77.53
2023-05-01T03:22:05.808Z,77.72
2023-05-01T03:24:32.740Z,76.17
2023-05-01T03:26:59.746Z,76.59
2023-05-01T03:29:27.826Z,76.52
2023-05-01T03:31:57.886Z,76.79
2023-05-01T03:34:25.008Z,77.41
2023-05-01T03:36:52.156Z,76.17
2023-05-01T03:39:19.293Z,76.79
2023-05-01T03:42:05.304Z,77.80
2023-05-01T03:44:38.116Z,77.97
2023-05-01T03:47:06.649Z,77.47
2023-05-01T03:49:38.776Z,78.08
2023-05-01T03:52:06.400Z,78.29
2023-05-01T03:54:33.520Z,78.20
2023-05-01T03:57:11.090Z,78.56
2023-05-01T03:59:38.153Z,78.37
2023-05-01T04:02:07.154Z,78.36
2023-05-01T04:04:36.677Z,78.17
2023-05-01T04:07:03.873Z,77.59
2023-05-01T04:09:30.966Z,76.69
2023-05-01T04:11:58.624Z,78.16
2023-05-01T04:14:25.792Z,78.77
2023-05-01T04:16:52.736Z,79.89
2023-05-01T04:19:21.116Z,78.73
2023-05-01T04:21:52.378Z,79.22
2023-05-01T04:24:19.564Z,79.03
2023-05-01T04:26:47.790Z,78.97
2023-05-01T04:29:14.879Z,78.75
2023-05-01T04:31:43.354Z,78.07
2023-05-01T04:34:10.377Z,77.43
2023-05-01T04:36:39.673Z,77.68
2023-05-01T04:39:06.668Z,77.02
2023-05-01T04:41:33.835Z,76.78
2023-05-01T04:44:01.113Z,76.54
2023-05-01T04:46:28.358Z,76.29
2023-05-01T04:48:55.518Z,75.92
2023-05-01T04:51:22.588Z,75.75
2023-05-01T04:53:51.887Z,75.56
2023-05-01T04:56:22.721Z,75.20
2023-05-01T04:58:53.210Z,74.23
2023-05-01T05:01:22.698Z,74.04
2023-05-01T05:03:50.363Z,73.62
2023-05-01T05:06:17.841Z,73.62
2023-05-01T05:08:44.765Z,73.30
2023-05-01T05:11:13.396Z,72.70
2023-05-01T05:13:56.947Z,72.51
2023-05-01T05:16:24.157Z,71.67
2023-05-01T05:18:51.337Z,71.85
2023-05-01T05:21:19.324Z,70.24
2023-05-01T05:23:53.120Z,71.10
2023-05-01T05:26:21.980Z,70.12
2023-05-01T05:28:50.968Z,69.20
2023-05-01T05:31:17.988Z,69.37
2023-05-01T05:33:45.016Z,69.88
2023-05-01T05:36:13.808Z,69.12
2023-05-01T05:38:43.415Z,67.51
2023-05-01T05:41:14.329Z,68.13
2023-05-01T05:43:43.175Z,67.87
2023-05-01T05:46:09.944Z,67.45
2023-05-01T05:48:38.065Z,66.69
2023-05-01T05:51:05.842Z,66.77
2023-05-01T05:53:32.943Z,67.64
2023-05-01T05:55:59.892Z,67.49
2023-05-01T05:58:27.534Z,67.70
2023-05-01T06:01:15.157Z,66.88
2023-05-01T06:03:42.269Z,67.20
2023-05-01T06:06:09.692Z,67.87
2023-05-01T06:08:37.837Z,67.43
2023-05-01T06:11:09.205Z,66.28
2023-05-01T06:13:38.322Z,65.11
2023-05-01T06:16:07.466Z,65.19
2023-05-01T06:18:36.011Z,65.55
2023-05-01T06:21:02.996Z,65.04
2023-05-01T06:23:30.479Z,64.26
2023-05-01T06:26:21.548Z,63.80
2023-05-01T06:28:48.466Z,63.48
2023-05-01T06:31:15.710Z,63.24
2023-05-01T06:33:50.341Z,62.30
2023-05-01T06:36:26.022Z,61.03
2023-05-01T06:38:53.191Z,61.66
2023-05-01T06:41:22.153Z,61.79
2023-05-01T06:43:49.217Z,60.23
2023-05-01T06:46:17.148Z,59.76
2023-05-01T06:48:44.149Z,60.24
2023-05-01T06:51:16.229Z,60.43
2023-05-01T06:53:43.332Z,58.87
2023-05-01T06:56:10.356Z,56.97
2023-05-01T06:58:37.378Z,56.77
2023-05-01T07:01:04.725Z,57.35
2023-05-01T07:03:31.750Z,57.23
2023-05-01T07:05:58.790Z,55.34
2023-05-01T07:08:28.339Z,54.75
2023-05-01T07:10:55.433Z,55.66
2023-05-01T07:13:22.464Z,55.02
2023-05-01T07:15:50.715Z,54.31
2023-05-01T07:18:18.756Z,53.49
2023-05-01T07:20:45.733Z,52.96
2023-05-01T07:23:12.841Z,51.59
2023-05-01T07:25:45.239Z,51.36
2023-05-01T07:28:12.184Z,50.87
2023-05-01T07:30:39.691Z,51.21
2023-05-01T07:33:06.713Z,49.84
2023-05-01T07:35:33.823Z,49.93
2023-05-01T07:38:00.846Z,48.97
2023-05-01T07:40:27.812Z,47.57
2023-05-01T07:42:56.186Z,48.15
2023-05-01T07:45:23.190Z,49.34
2023-05-01T07:47:50.219Z,49.40
2023-05-01T07:50:17.396Z,45.99
2023-05-01T07:52:44.581Z,47.00
2023-05-01T07:55:11.738Z,46.33
2023-05-01T07:57:39.295Z,47.25
2023-05-01T08:00:09.284Z,47.43
2023-05-01T08:02:42.244Z,45.50
2023-05-01T09:09:47.157Z,33.50
2023-05-01T09:12:21.009Z,30.81
2023-05-01T09:14:47.929Z,30.28
2023-05-01T09:17:15.737Z,34.78
2023-05-01T09:19:42.741Z,32.71
2023-05-01T09:22:09.853Z,32.37
2023-05-01T09:24:36.953Z,33.11
2023-05-01T09:27:06.480Z,32.91
2023-05-01T09:29:41.171Z,32.30
2023-05-01T09:32:16.281Z,32.54
2023-05-01T09:34:43.719Z,31.57
2023-05-01T09:37:13.706Z,30.74
2023-05-01T09:39:40.848Z,30.33
2023-05-01T09:42:09.712Z,31.19
2023-05-01T09:44:43.500Z,31.19
2023-05-01T09:47:10.591Z,31.12
2023-05-01T09:49:45.650Z,31.40
2023-05-01T09:52:14.648Z,30.85
2023-05-01T09:54:41.888Z,29.55
2023-05-01T09:57:10.222Z,29.94
2023-05-01T09:59:37.286Z,29.38
2023-05-01T10:02:04.295Z,30.21
2023-05-01T10:04:32.171Z,28.96
2023-05-01T10:06:59.418Z,28.05
2023-05-01T10:09:29.925Z,28.59
2023-05-01T10:11:57.878Z,28.16
2023-05-01T10:14:28.319Z,26.53
2023-05-01T10:16:57.952Z,27.45
2023-05-01T10:19:25.457Z,28.17
2023-05-01T10:21:53.505Z,29.91
2023-05-01T10:24:20.727Z,31.31
2023-05-01T10:26:49.068Z,31.60
2023-05-01T10:29:16.163Z,31.77
2023-05-01T10:31:44.913Z,32.70
2023-05-01T10:34:12.533Z,32.84
2023-05-01T10:36:43.934Z,32.12
2023-05-01T10:39:32.416Z,33.02
2023-05-01T10:42:08.563Z,34.56
2023-05-01T10:44:35.987Z,33.58
2023-05-01T10:47:41.583Z,33.39
2023-05-01T10:50:11.587Z,34.09
2023-05-01T10:53:16.345Z,34.34
2023-05-01T10:55:44.750Z,34.02
2023-05-01T10:58:12.112Z,32.77
2023-05-01T11:00:39.335Z,31.85
2023-05-01T11:03:36.705Z,33.53
2023-05-01T11:06:08.929Z,37.38
2023-05-01T11:08:38.279Z,37.43
2023-05-01T11:11:42.446Z,37.21
2023-05-01T11:14:11.016Z,37.84
2023-05-01T11:16:42.713Z,37.77
2023-05-01T11:19:11.238Z,37.92
2023-05-01T11:21:40.710Z,37.60
2023-05-01T11:24:08.242Z,37.52
2023-05-01T11:26:38.585Z,36.93
2023-05-01T11:29:06.228Z,36.46
2023-05-01T11:31:33.532Z,35.46
2023-05-01T11:34:01.012Z,35.34
2023-05-01T11:36:28.949Z,34.87
2023-05-01T11:38:57.676Z,34.29
2023-05-01T11:41:25.410Z,34.70
2023-05-01T11:43:54.011Z,34.39
2023-05-01T11:46:24.613Z,33.95
2023-05-01T11:48:51.654Z,35.02
2023-05-01T11:51:19.201Z,34.91
2023-05-01T11:54:00.765Z,34.75
2023-05-01T11:56:28.122Z,34.11
2023-05-01T11:58:56.221Z,35.31
2023-05-01T12:01:33.943Z,35.88
2023-05-01T12:04:01.285Z,35.88
2023-05-01T12:06:36.972Z,34.17
2023-05-01T12:09:05.964Z,33.73
2023-05-01T12:11:32.904Z,34.48
2023-05-01T12:13:59.860Z,35.12
2023-05-01T12:16:28.355Z,36.26
2023-05-01T12:18:55.575Z,38.42
2023-05-01T12:21:22.892Z,39.11
2023-05-01T12:23:54.691Z,39.19
2023-05-01T12:26:26.337Z,39.84
2023-05-01T12:28:54.412Z,40.96
2023-05-01T12:31:21.266Z,39.88
2023-05-01T12:33:53.668Z,40.23
2023-05-01T12:36:25.329Z,38.87
2023-05-01T12:38:56.541Z,38.23
2023-05-01T12:41:37.289Z,38.31
2023-05-01T12:44:15.162Z,38.77
2023-05-01T12:46:42.328Z,38.13
2023-05-01T12:49:09.483Z,37.44
2023-05-01T12:51:36.729Z,37.21
2023-05-01T12:54:04.405Z,36.72
2023-05-01T12:56:31.884Z,36.46
2023-05-01T12:59:00.207Z,36.32
2023-05-01T13:01:28.562Z,34.86
2023-05-01T13:03:58.191Z,35.68
2023-05-01T13:06:33.292Z,33.47
2023-05-01T13:09:09.358Z,33.60
2023-05-01T13:11:36.516Z,34.86
2023-05-01T13:14:09.078Z,33.49
2023-05-01T13:16:45.365Z,32.75
2023-05-01T13:19:13.383Z,32.38
2023-05-01T13:21:48.302Z,32.86
2023-05-01T13:24:15.450Z,33.65
2023-05-01T13:26:42.399Z,34.46
2023-05-01T13:29:14.428Z,34.84
2023-05-01T13:31:44.103Z,34.70
2023-05-01T13:34:11.283Z,33.96
2023-05-01T13:36:40.236Z,34.41
2023-05-01T13:39:07.208Z,35.06
2023-05-01T13:41:35.433Z,34.69
2023-05-01T13:44:02.344Z,34.79
2023-05-01T13:46:30.958Z,35.46
2023-05-01T13:49:04.831Z,35.79
2023-05-01T13:51:32.654Z,36.63
2023-05-01T13:53:59.600Z,36.89
2023-05-01T13:56:26.987Z,35.78
2023-05-01T13:58:53.959Z,35.41
2023-05-01T14:01:22.565Z,36.37
2023-05-01T14:03:51.774Z,35.27
2023-05-01T14:06:20.609Z,35.40
2023-05-01T14:08:49.275Z,35.92
2023-05-01T14:11:16.348Z,36.63
2023-05-01T14:13:45.620Z,37.16
2023-05-01T14:16:19.938Z,37.34
2023-05-01T14:18:48.208Z,38.08
2023-05-01T14:21:17.932Z,38.44
2023-05-01T14:23:45.298Z,39.17
2023-05-01T14:26:17.712Z,39.63
2023-05-01T14:28:46.285Z,39.61
2023-05-01T14:31:17.463Z,39.37
2023-05-01T14:33:44.674Z,37.30
2023-05-01T14:36:12.786Z,36.15
2023-05-01T14:38:46.693Z,35.96
2023-05-01T14:41:14.781Z,34.62
2023-05-01T14:43:44.439Z,33.56
2023-05-01T14:46:12.679Z,33.59
2023-05-01T14:48:41.866Z,31.93
2023-05-01T14:51:11.190Z,31.71
2023-05-01T14:53:43.991Z,31.42
2023-05-01T14:56:11.915Z,30.59
2023-05-01T14:58:39.068Z,30.73
2023-05-01T15:01:06.353Z,30.25
2023-05-01T15:03:36.283Z,30.66
2023-05-01T15:06:04.266Z,31.06
2023-05-01T15:08:32.542Z,30.65
2023-05-01T15:11:01.054Z,30.29
2023-05-01T15:13:28.841Z,30.66
2023-05-01T15:15:56.203Z,30.52
2023-05-01T15:18:23.456Z,30.12
2023-05-01T15:20:50.488Z,30.21
2023-05-01T15:23:17.866Z,30.54
2023-05-01T15:25:44.874Z,31.27
2023-05-01T15:28:13.655Z,30.11
2023-05-01T15:30:44.387Z,31.36
2023-05-01T15:33:11.534Z,32.17
2023-05-01T15:35:38.764Z,33.33
2023-05-01T15:38:05.783Z,32.96
2023-05-01T15:40:33.607Z,33.42
2023-05-01T15:43:01.374Z,33.95
2023-05-01T15:45:29.897Z,33.64
2023-05-01T15:47:57.101Z,33.62
2023-05-01T15:50:24.184Z,33.79
2023-05-01T15:52:52.261Z,34.48
2023-05-01T15:55:19.596Z,34.75
2023-05-01T15:57:47.465Z,34.29
2023-05-01T16:00:14.798Z,34.30
2023-05-01T16:02:44.442Z,34.74
2023-05-01T16:05:13.656Z,34.92
2023-05-01T16:07:40.706Z,35.70
2023-05-01T16:10:08.969Z,36.92
2023-05-01T16:12:36.011Z,37.50
2023-05-01T16:15:04.721Z,37.97
2023-05-01T16:17:33.709Z,38.16
2023-05-01T16:20:02.904Z,38.93
2023-05-01T16:22:32.795Z,39.29
2023-05-01T16:25:01.297Z,38.99
2023-05-01T16:27:28.308Z,39.40
2023-05-01T16:29:55.291Z,39.68
2023-05-01T16:32:24.248Z,39.97
2023-05-01T16:34:51.325Z,40.67
2023-05-01T16:37:21.398Z,40.21
2023-05-01T16:39:48.689Z,40.14
2023-05-01T16:42:15.704Z,41.21
2023-05-01T16:44:42.692Z,41.19
2023-05-01T16:47:11.982Z,41.08
2023-05-01T16:49:42.154Z,41.26
2023-05-01T16:52:13.504Z,41.99
2023-05-01T16:54:41.902Z,42.49
2023-05-01T16:57:08.957Z,42.16
2023-05-01T16:59:37.373Z,42.74
2023-05-01T17:02:05.898Z,43.27
2023-05-01T17:04:33.581Z,43.62
2023-05-01T17:07:00.645Z,44.63
2023-05-01T17:09:27.707Z,44.18
2023-05-01T17:11:57.551Z,44.89
2023-05-01T17:14:24.638Z,45.14
2023-05-01T17:16:53.026Z,46.09
2023-05-01T17:19:20.470Z,45.83
2023-05-01T17:21:47.394Z,46.44
2023-05-01T17:24:14.351Z,46.44
2023-05-01T17:26:41.447Z,46.17
2023-05-01T17:29:09.803Z,46.54
2023-05-01T17:31:36.856Z,47.03
2023-05-01T17:34:03.830Z,46.66
2023-05-01T17:36:31.788Z,46.61
2023-05-01T17:39:01.328Z,46.55
2023-05-01T17:41:28.418Z,47.07
2023-05-01T17:43:55.479Z,46.79
2023-05-01T17:46:23.923Z,46.38
2023-05-01T17:48:50.933Z,46.91
2023-05-01T17:51:18.221Z,47.08
2023-05-01T17:53:45.273Z,47.34
2023-05-01T17:56:12.353Z,47.20
2023-05-01T17:58:39.288Z,47.63
2023-05-01T18:01:06.336Z,47.52
2023-05-01T18:03:34.971Z,48.34
2023-05-01T18:06:02.703Z,47.55
2023-05-01T18:08:29.842Z,47.94
2023-05-01T18:10:56.758Z,48.01
2023-05-01T18:13:28.599Z,48.10
2023-05-01T18:15:55.917Z,47.91
2023-05-01T18:18:23.027Z,48.44
2023-05-01T18:20:51.829Z,47.80
2023-05-01T18:23:19.030Z,47.92
2023-05-01T18:25:46.470Z,48.10
2023-05-01T18:28:16.507Z,47.66
2023-05-01T18:30:43.787Z,47.80
2023-05-01T18:33:11.222Z,47.86
2023-05-01T18:35:39.909Z,47.66
2023-05-01T18:38:08.331Z,48.09
2023-05-01T18:40:35.948Z,48.39
2023-05-01T18:43:02.949Z,48.46
2023-05-01T18:45:30.926Z,48.54
2023-05-01T18:48:00.629Z,48.77
2023-05-01T18:50:27.721Z,49.31
2023-05-01T18:52:54.899Z,49.06
2023-05-01T18:55:23.289Z,48.88
2023-05-01T18:57:50.289Z,48.96
2023-05-01T19:00:20.448Z,49.31
2023-05-01T19:02:51.669Z,49.25
2023-05-01T19:05:19.394Z,49.18
2023-05-01T19:07:46.679Z,49.53
2023-05-01T19:10:13.860Z,49.09
2023-05-01T19:12:42.400Z,49.93
2023-05-01T19:15:10.087Z,49.71
2023-05-01T19:17:37.374Z,49.81
2023-05-01T19:20:06.735Z,50.04
2023-05-01T19:22:33.724Z,49.04
2023-05-01T19:25:00.776Z,49.56
2023-05-01T19:27:27.798Z,49.62
2023-05-01T19:29:56.683Z,49.32
2023-05-01T19:32:23.975Z,49.96
2023-05-01T19:34:51.090Z,51.47
2023-05-01T19:37:18.129Z,52.55
2023-05-01T19:39:45.221Z,52.66
2023-05-01T19:42:12.208Z,52.83
2023-05-01T19:44:39.816Z,53.04
2023-05-01T19:47:08.174Z,53.43
2023-05-01T19:49:34.898Z,53.36
2023-05-01T19:52:01.833Z,53.64
2023-05-01T19:54:28.821Z,53.60
2023-05-01T19:56:56.155Z,53.17
2023-05-01T19:59:23.198Z,52.24
2023-05-01T20:01:50.333Z,52.54
2023-05-01T20:04:19.040Z,52.37
2023-05-01T20:06:46.895Z,52.74
2023-05-01T20:09:13.933Z,52.63
2023-05-01T20:11:41.135Z,52.65
2023-05-01T20:14:08.180Z,52.45
2023-05-01T20:16:36.105Z,52.63
2023-05-01T20:19:03.066Z,52.79
2023-05-01T20:21:31.625Z,53.09
2023-05-01T20:23:58.663Z,52.83
2023-05-01T20:26:25.926Z,52.60
2023-05-01T20:28:53.709Z,52.65
2023-05-01T20:31:21.386Z,53.16
2023-05-01T20:33:48.544Z,53.41
2023-05-01T20:36:17.302Z,53.43
2023-05-01T20:38:47.546Z,53.73
2023-05-01T20:41:14.863Z,54.11
2023-05-01T20:43:41.781Z,54.32
2023-05-01T20:46:08.857Z,54.67
2023-05-01T20:48:35.830Z,54.51
2023-05-01T20:51:02.795Z,55.30
2023-05-01T20:53:29.859Z,55.02
2023-05-01T20:55:58.224Z,55.47
2023-05-01T20:58:24.938Z,55.43
2023-05-01T21:00:53.888Z,56.05
2023-05-01T21:03:21.415Z,56.11
2023-05-01T21:05:48.458Z,56.39
2023-05-01T21:08:15.545Z,57.18
2023-05-01T21:10:42.545Z,56.99
2023-05-01T21:13:11.002Z,57.57
2023-05-01T21:15:40.956Z,57.83
2023-05-01T21:18:08.898Z,57.91
2023-05-01T21:20:35.881Z,58.07
2023-05-01T21:23:02.866Z,58.07
2023-05-01T21:25:31.748Z,57.74
2023-05-01T21:28:03.634Z,58.65
2023-05-01T21:30:35.070Z,58.14
2023-05-01T21:33:03.384Z,58.77
2023-05-01T21:35:30.555Z,58.87
2023-05-01T21:37:57.673Z,58.68
2023-05-01T21:40:25.103Z,59.47
2023-05-01T21:42:53.296Z,59.16
2023-05-01T21:45:20.893Z,59.06
2023-05-01T21:47:53.559Z,59.38
2023-05-01T21:50:21.507Z,59.32
2023-05-01T21:52:49.312Z,59.58
2023-05-01T21:55:18.014Z,59.64
2023-05-01T21:57:45.109Z,59.72
2023-05-01T22:00:13.029Z,59.83
2023-05-01T22:02:42.077Z,60.64
2023-05-01T22:05:11.768Z,60.27
2023-05-01T22:07:40.184Z,60.19
2023-05-01T22:10:08.168Z,60.58
2023-05-01T22:12:35.190Z,60.95
2023-05-01T22:15:02.402Z,61.33
2023-05-01T22:17:29.446Z,60.78
2023-05-01T22:19:56.487Z,60.71
2023-05-01T22:22:24.903Z,60.60
2023-05-01T22:24:51.847Z,62.24
2023-05-01T22:27:18.935Z,62.01
2023-05-01T22:29:45.911Z,61.80
2023-05-01T22:32:13.058Z,61.84
2023-05-01T22:34:40.242Z,62.57
2023-05-01T22:37:07.373Z,62.01
2023-05-01T22:39:36.410Z,63.90
2023-05-01T22:42:03.766Z,64.00
2023-05-01T22:44:30.865Z,63.91
2023-05-01T22:46:59.490Z,63.22
2023-05-01T22:49:27.969Z,64.17
2023-05-01T22:51:55.142Z,64.78
2023-05-01T22:54:22.246Z,64.21
2023-05-01T22:56:51.463Z,65.55
2023-05-01T22:59:19.048Z,65.45
2023-05-01T23:01:46.470Z,64.76
2023-05-01T23:04:14.016Z,65.74
2023-05-01T23:06:41.372Z,65.92
2023-05-01T23:09:08.509Z,66.39
2023-05-01T23:11:35.562Z,66.28
2023-05-01T23:14:03.916Z,66.30
2023-05-01T23:16:37.738Z,67.01
2023-05-01T23:19:05.157Z,66.55
2023-05-01T23:21:33.915Z,66.27
2023-05-01T23:24:01.548Z,65.92
2023-05-01T23:26:33.028Z,66.76
2023-05-01T23:29:00.275Z,66.77
2023-05-01T23:31:29.268Z,66.16
2023-05-01T23:33:56.749Z,65.97
2023-05-01T23:36:23.757Z,65.38
2023-05-01T23:38:50.720Z,65.21
2023-05-01T23:41:17.715Z,65.35
2023-05-01T23:43:47.979Z,65.42
2023-05-01T23:46:15.646Z,66.27
2023-05-01T23:48:44.004Z,65.71
2023-05-01T23:51:11.103Z,65.86
2023-05-01T23:53:38.126Z,65.93
2023-05-01T23:56:05.898Z,65.47
2023-05-01T23:58:32.818Z,65.45
